Time;durP1;ratioP1;P1;durP2;ratioP2;P2;SDS_P1;SDS_P2;PMS_P1;PMS_P2;Temp;Humidity;BMP_temperature;BMP_pressure;BME280_temperature;BME280_humidity;BME280_pressure;Samples;Min_cycle;Max_cycle;Signal;HPM_P1;HPM_P2
2022/07/26 00:00:08;;;;;;;17.42;2.60;;;;;;;;;;5020706;28;20239;-66
2022/07/26 00:02:34;;;;;;;11.20;2.30;;;;;;;;;;5026492;28;20215;-65
2022/07/26 00:04:59;;;;;;;13.93;2.20;;;;;;;;;;5037629;28;20215;-66
2022/07/26 00:07:24;;;;;;;12.93;2.30;;;;;;;;;;5032931;28;20215;-66
2022/07/26 00:09:50;;;;;;;16.77;2.53;;;;;;;;;;5040973;28;20851;-65
2022/07/26 00:12:15;;;;;;;14.02;2.40;;;;;;;;;;5025227;28;20717;-65
2022/07/26 00:14:40;;;;;;;47.80;4.75;;;;;;;;;;5021902;28;20224;-65
2022/07/26 00:17:06;;;;;;;20.05;2.70;;;;;;;;;;5020584;28;20266;-65
2022/07/26 00:19:31;;;;;;;13.45;2.50;;;;;;;;;;5022447;28;20215;-66
2022/07/26 00:24:40;;;;;;;19.13;2.65;;;;;;;;;;5040151;28;20281;-65
2022/07/26 00:27:05;;;;;;;11.50;2.30;;;;;;;;;;5031361;28;20298;-65
2022/07/26 00:29:31;;;;;;;11.98;2.10;;;;;;;;;;5030008;28;20290;-66
2022/07/26 00:31:56;;;;;;;12.13;2.40;;;;;;;;;;5031467;28;20211;-66
2022/07/26 00:34:21;;;;;;;16.65;2.25;;;;;;;;;;5020381;28;20207;-66
2022/07/26 00:36:46;;;;;;;15.95;2.30;;;;;;;;;;5020791;28;20249;-66
2022/07/26 00:39:12;;;;;;;11.07;2.35;;;;;;;;;;5020717;28;20274;-66
2022/07/26 00:41:37;;;;;;;13.13;2.20;;;;;;;;;;5039209;28;20276;-66
2022/07/26 00:44:03;;;;;;;18.30;2.50;;;;;;;;;;5020376;28;20238;-67
2022/07/26 00:46:28;;;;;;;14.82;2.60;;;;;;;;;;5021045;28;20261;-66
2022/07/26 00:48:53;;;;;;;12.63;2.30;;;;;;;;;;5040116;28;20296;-67
2022/07/26 00:51:19;;;;;;;11.55;2.22;;;;;;;;;;5039252;28;20211;-66
2022/07/26 00:53:45;;;;;;;12.57;1.90;;;;;;;;;;5040408;28;20670;-67
2022/07/26 00:56:13;;;;;;;16.23;2.53;;;;;;;;;;5039211;28;20753;-66
2022/07/26 00:58:38;;;;;;;17.85;2.30;;;;;;;;;;5041386;28;20221;-67
2022/07/26 01:01:04;;;;;;;12.27;2.50;;;;;;;;;;5029641;28;20223;-65
2022/07/26 01:03:29;;;;;;;11.07;2.92;;;;;;;;;;5028846;28;20280;-65
2022/07/26 01:05:54;;;;;;;11.23;2.08;;;;;;;;;;5044422;28;20209;-65
2022/07/26 01:08:19;;;;;;;13.48;2.38;;;;;;;;;;5038914;28;20219;-65
2022/07/26 01:10:45;;;;;;;9.73;2.67;;;;;;;;;;5024440;28;20211;-65
2022/07/26 01:13:11;;;;;;;17.73;2.47;;;;;;;;;;5024057;28;20560;-65
2022/07/26 01:15:36;;;;;;;16.90;2.60;;;;;;;;;;5024215;28;20262;-65
2022/07/26 01:18:01;;;;;;;13.27;2.47;;;;;;;;;;5024410;28;20445;-65
2022/07/26 01:20:27;;;;;;;13.32;2.40;;;;;;;;;;5041763;28;20794;-65
2022/07/26 01:22:52;;;;;;;7.82;2.33;;;;;;;;;;5023679;28;20235;-64
2022/07/26 01:25:26;;;;;;;11.85;2.20;;;;;;;;;;5032167;28;20207;-64
2022/07/26 01:27:52;;;;;;;12.93;3.08;;;;;;;;;;5031254;28;20207;-64
2022/07/26 01:30:17;;;;;;;11.95;2.30;;;;;;;;;;5025114;28;20329;-64
2022/07/26 01:32:42;;;;;;;12.52;2.40;;;;;;;;;;5043525;28;20218;-64
2022/07/26 01:35:08;;;;;;;10.52;2.53;;;;;;;;;;5029429;28;20302;-64
2022/07/26 01:37:33;;;;;;;10.52;2.00;;;;;;;;;;5034325;28;20721;-64
2022/07/26 01:39:58;;;;;;;11.15;2.30;;;;;;;;;;5036731;28;20207;-64
2022/07/26 01:42:24;;;;;;;10.55;2.13;;;;;;;;;;5035425;28;20212;-64
2022/07/26 01:44:49;;;;;;;13.45;2.35;;;;;;;;;;5024206;28;20631;-64
2022/07/26 01:47:14;;;;;;;12.88;2.30;;;;;;;;;;5031519;28;20226;-65
2022/07/26 01:49:40;;;;;;;12.77;2.70;;;;;;;;;;5040710;28;20563;-64
2022/07/26 01:52:05;;;;;;;10.13;2.00;;;;;;;;;;5027796;28;20207;-64
2022/07/26 01:54:30;;;;;;;9.95;2.20;;;;;;;;;;5027481;28;20223;-64
2022/07/26 01:56:55;;;;;;;18.55;2.42;;;;;;;;;;5028319;28;20752;-64
2022/07/26 01:59:21;;;;;;;12.48;2.42;;;;;;;;;;5042452;28;20218;-64
2022/07/26 02:01:46;;;;;;;13.65;2.60;;;;;;;;;;5031796;28;20797;-64
2022/07/26 02:04:57;;;;;;;10.50;2.03;;;;;;;;;;5023582;28;20228;-64
2022/07/26 02:06:57;;;;;;;11.32;2.45;;;;;;;;;;5023601;28;20310;-64
2022/07/26 02:09:22;;;;;;;11.32;2.30;;;;;;;;;;5022307;28;20291;-64
2022/07/26 02:11:48;;;;;;;11.48;2.20;;;;;;;;;;5023289;28;20219;-65
2022/07/26 02:14:13;;;;;;;26.27;3.78;;;;;;;;;;5023251;28;20372;-64
2022/07/26 02:16:38;;;;;;;13.15;2.35;;;;;;;;;;5040904;28;20301;-64
2022/07/26 02:19:03;;;;;;;12.20;2.25;;;;;;;;;;5041739;28;20298;-65
2022/07/26 02:21:29;;;;;;;10.52;2.25;;;;;;;;;;5042566;28;20564;-64
2022/07/26 02:23:56;;;;;;;8.25;2.20;;;;;;;;;;5023988;28;20293;-64
2022/07/26 02:26:22;;;;;;;13.82;2.60;;;;;;;;;;5027975;28;20297;-64
2022/07/26 02:28:47;;;;;;;13.85;2.60;;;;;;;;;;5023486;28;20196;-64
2022/07/26 02:31:12;;;;;;;11.85;2.20;;;;;;;;;;5027181;28;20219;-64
2022/07/26 02:33:38;;;;;;;12.23;2.20;;;;;;;;;;5028677;28;20498;-63
2022/07/26 02:36:03;;;;;;;15.07;2.80;;;;;;;;;;5038881;28;20305;-64
2022/07/26 02:38:28;;;;;;;14.75;2.78;;;;;;;;;;5021315;28;20208;-64
2022/07/26 02:40:54;;;;;;;12.02;2.78;;;;;;;;;;5027252;28;20243;-64
2022/07/26 02:43:19;;;;;;;13.93;2.78;;;;;;;;;;5031124;28;20224;-64
2022/07/26 02:45:44;;;;;;;13.30;2.95;;;;;;;;;;5023214;28;20203;-64
2022/07/26 02:48:09;;;;;;;14.40;2.40;;;;;;;;;;5022487;28;20220;-64
2022/07/26 02:50:35;;;;;;;12.32;2.17;;;;;;;;;;5024828;28;20345;-64
2022/07/26 02:53:00;;;;;;;11.23;2.45;;;;;;;;;;5025084;28;21002;-64
2022/07/26 02:55:25;;;;;;;10.82;2.75;;;;;;;;;;5029838;28;20717;-63
2022/07/26 02:57:51;;;;;;;12.68;2.72;;;;;;;;;;5035140;28;20215;-64
2022/07/26 03:00:18;;;;;;;9.95;2.50;;;;;;;;;;5035863;28;20235;-64
2022/07/26 03:02:44;;;;;;;12.30;2.85;;;;;;;;;;5041612;28;20226;-63
2022/07/26 03:05:09;;;;;;;11.82;2.55;;;;;;;;;;5027129;28;20609;-63
2022/07/26 03:07:35;;;;;;;9.18;2.38;;;;;;;;;;5022007;28;20226;-63
2022/07/26 03:10:00;;;;;;;11.40;2.80;;;;;;;;;;5024805;28;20670;-63
2022/07/26 03:12:25;;;;;;;9.35;2.13;;;;;;;;;;5036268;28;20643;-63
2022/07/26 03:14:51;;;;;;;12.73;2.60;;;;;;;;;;5023026;28;20204;-62
2022/07/26 03:17:16;;;;;;;12.18;3.00;;;;;;;;;;5026825;28;21190;-62
2022/07/26 03:19:41;;;;;;;12.23;2.63;;;;;;;;;;5041812;28;20234;-62
2022/07/26 03:22:07;;;;;;;11.43;2.60;;;;;;;;;;5039806;28;20204;-62
2022/07/26 03:24:32;;;;;;;9.70;2.55;;;;;;;;;;5040954;28;20254;-62
2022/07/26 03:26:57;;;;;;;11.38;2.70;;;;;;;;;;5022243;28;20897;-62
2022/07/26 03:29:23;;;;;;;11.32;2.90;;;;;;;;;;5027728;28;20298;-63
2022/07/26 03:31:48;;;;;;;7.93;2.30;;;;;;;;;;5029793;28;20578;-62
2022/07/26 03:34:13;;;;;;;12.18;2.70;;;;;;;;;;5017009;28;20270;-62
2022/07/26 03:36:39;;;;;;;10.82;3.15;;;;;;;;;;5015635;28;20207;-62
2022/07/26 03:39:04;;;;;;;11.02;2.70;;;;;;;;;;5019193;28;20826;-62
2022/07/26 03:41:30;;;;;;;11.43;3.10;;;;;;;;;;5024615;28;20618;-62
2022/07/26 03:43:56;;;;;;;15.75;3.00;;;;;;;;;;5032442;28;20219;-62
2022/07/26 03:46:22;;;;;;;10.20;2.60;;;;;;;;;;5023844;28;20211;-62
2022/07/26 03:48:47;;;;;;;8.50;2.63;;;;;;;;;;5029967;28;20269;-63
2022/07/26 03:51:12;;;;;;;12.25;2.85;;;;;;;;;;5039679;28;20250;-62
2022/07/26 03:53:37;;;;;;;14.43;2.70;;;;;;;;;;5041177;28;20203;-62
2022/07/26 03:58:47;;;;;;;49.08;5.70;;;;;;;;;;5032778;28;20237;-63
2022/07/26 04:01:12;;;;;;;13.68;3.05;;;;;;;;;;5032566;28;21089;-61
2022/07/26 04:03:37;;;;;;;15.73;2.92;;;;;;;;;;5029429;28;20236;-62
2022/07/26 04:06:03;;;;;;;11.55;3.35;;;;;;;;;;5037739;28;20211;-62
2022/07/26 04:08:28;;;;;;;13.15;3.08;;;;;;;;;;5023302;28;20262;-62
2022/07/26 04:10:54;;;;;;;10.13;2.58;;;;;;;;;;5027932;28;20559;-62
2022/07/26 04:13:19;;;;;;;12.85;3.17;;;;;;;;;;5032039;28;20712;-62
2022/07/26 04:15:44;;;;;;;8.98;3.03;;;;;;;;;;5021302;28;20213;-62
2022/07/26 04:18:10;;;;;;;7.93;2.78;;;;;;;;;;5027491;28;20231;-63
2022/07/26 04:20:35;;;;;;;20.23;3.00;;;;;;;;;;5037160;28;20768;-63
2022/07/26 04:23:01;;;;;;;11.77;2.90;;;;;;;;;;5023540;28;20263;-63
2022/07/26 04:25:26;;;;;;;12.75;3.05;;;;;;;;;;5039639;28;20219;-63
2022/07/26 04:27:51;;;;;;;11.45;3.10;;;;;;;;;;5020909;28;20290;-66
2022/07/26 04:30:16;;;;;;;10.02;3.13;;;;;;;;;;5020748;28;20235;-66
2022/07/26 04:32:42;;;;;;;11.63;3.30;;;;;;;;;;5014626;28;21327;-64
2022/07/26 04:35:08;;;;;;;15.30;3.00;;;;;;;;;;5016245;28;21060;-65
2022/07/26 04:37:40;;;;;;;14.93;3.50;;;;;;;;;;5015642;28;21777;-63
2022/07/26 04:40:05;;;;;;;11.82;3.35;;;;;;;;;;5020082;28;20212;-64
2022/07/26 04:42:31;;;;;;;21.77;4.10;;;;;;;;;;5023768;28;20211;-64
2022/07/26 04:44:56;;;;;;;15.10;4.00;;;;;;;;;;5023765;28;20199;-64
2022/07/26 04:47:21;;;;;;;18.48;3.83;;;;;;;;;;5022238;28;20227;-64
2022/07/26 04:49:46;;;;;;;18.33;4.00;;;;;;;;;;5022238;28;20200;-63
2022/07/26 04:52:12;;;;;;;13.13;3.22;;;;;;;;;;5021856;28;20306;-63
2022/07/26 04:54:37;;;;;;;17.40;3.40;;;;;;;;;;5020377;28;20213;-63
2022/07/26 04:57:02;;;;;;;10.57;2.42;;;;;;;;;;5014907;28;20554;-63
2022/07/26 04:59:28;;;;;;;13.32;3.42;;;;;;;;;;5014471;28;20641;-62
2022/07/26 05:01:53;;;;;;;10.45;3.13;;;;;;;;;;5017952;28;20207;-64
2022/07/26 05:04:18;;;;;;;9.13;2.30;;;;;;;;;;5021942;28;20251;-63
2022/07/26 05:06:44;;;;;;;9.43;2.70;;;;;;;;;;5022515;28;20229;-63
2022/07/26 05:09:09;;;;;;;11.50;2.97;;;;;;;;;;5021457;28;20686;-63
2022/07/26 05:11:35;;;;;;;21.88;4.47;;;;;;;;;;5023253;28;20619;-63
2022/07/26 05:14:00;;;;;;;13.80;2.55;;;;;;;;;;5023116;28;20204;-64
2022/07/26 05:16:25;;;;;;;10.20;2.45;;;;;;;;;;5022133;28;20243;-64
2022/07/26 05:18:50;;;;;;;7.38;2.30;;;;;;;;;;5056564;28;20250;-63
2022/07/26 05:21:16;;;;;;;12.85;2.60;;;;;;;;;;5057130;28;20555;-64
2022/07/26 05:23:42;;;;;;;14.75;2.45;;;;;;;;;;5060081;28;20214;-64
2022/07/26 05:26:07;;;;;;;12.55;2.58;;;;;;;;;;5059177;28;20702;-63
2022/07/26 05:28:32;;;;;;;11.93;2.90;;;;;;;;;;5055045;28;20466;-63
2022/07/26 05:30:58;;;;;;;18.98;2.00;;;;;;;;;;5049968;28;20207;-63
2022/07/26 05:33:23;;;;;;;8.10;2.22;;;;;;;;;;5054531;28;20234;-63
2022/07/26 05:35:48;;;;;;;12.65;1.98;;;;;;;;;;5059338;28;20215;-63
2022/07/26 05:38:14;;;;;;;7.75;1.92;;;;;;;;;;5063906;28;20218;-64
2022/07/26 05:40:39;;;;;;;15.88;2.42;;;;;;;;;;5070040;28;20652;-64
2022/07/26 05:43:04;;;;;;;10.82;2.47;;;;;;;;;;5069254;28;20230;-62
2022/07/26 05:45:29;;;;;;;7.72;1.75;;;;;;;;;;5037376;28;20216;-63
2022/07/26 05:47:55;;;;;;;8.18;2.17;;;;;;;;;;5033957;28;20211;-64
2022/07/26 05:50:20;;;;;;;10.75;1.88;;;;;;;;;;5032643;28;20215;-64
2022/07/26 05:52:45;;;;;;;7.47;1.30;;;;;;;;;;5033219;28;20225;-64
2022/07/26 05:55:11;;;;;;;10.90;1.70;;;;;;;;;;5033212;28;20216;-63
2022/07/26 05:57:40;;;;;;;10.50;1.77;;;;;;;;;;5033277;28;20231;-64
2022/07/26 06:00:05;;;;;;;9.07;1.95;;;;;;;;;;5032980;28;20265;-63
2022/07/26 06:02:31;;;;;;;92.72;8.43;;;;;;;;;;5033655;28;20220;-64
2022/07/26 06:04:56;;;;;;;11.20;1.67;;;;;;;;;;5042664;28;20209;-63
2022/07/26 06:07:22;;;;;;;7.72;1.50;;;;;;;;;;5060479;28;20214;-63
2022/07/26 06:09:47;;;;;;;6.97;1.40;;;;;;;;;;5055826;28;20207;-64
2022/07/26 06:12:12;;;;;;;7.50;1.38;;;;;;;;;;5052359;28;20211;-64
2022/07/26 06:14:37;;;;;;;10.38;1.75;;;;;;;;;;5053069;28;20539;-64
2022/07/26 06:17:03;;;;;;;7.93;1.48;;;;;;;;;;5052704;28;20241;-64
2022/07/26 06:19:28;;;;;;;11.35;1.90;;;;;;;;;;5052504;28;20543;-64
2022/07/26 06:21:54;;;;;;;15.45;1.60;;;;;;;;;;5052691;28;20286;-64
2022/07/26 06:24:19;;;;;;;41.80;5.35;;;;;;;;;;5052187;28;20690;-64
2022/07/26 06:26:45;;;;;;;9.23;1.70;;;;;;;;;;5052615;28;20230;-64
2022/07/26 06:29:10;;;;;;;9.07;1.65;;;;;;;;;;5052261;28;20230;-64
2022/07/26 06:31:36;;;;;;;7.65;1.50;;;;;;;;;;5052670;28;20218;-64
2022/07/26 06:34:01;;;;;;;19.77;2.05;;;;;;;;;;5052295;28;20704;-64
2022/07/26 06:36:26;;;;;;;14.65;1.65;;;;;;;;;;5052965;28;20219;-63
2022/07/26 06:38:53;;;;;;;5.43;1.10;;;;;;;;;;5051810;28;20203;-64
2022/07/26 06:41:19;;;;;;;6.90;1.38;;;;;;;;;;5052165;28;20219;-64
2022/07/26 06:43:44;;;;;;;17.30;2.92;;;;;;;;;;5052755;28;20219;-64
2022/07/26 06:46:09;;;;;;;4.82;1.20;;;;;;;;;;5059800;28;20214;-65
2022/07/26 06:48:34;;;;;;;5.95;1.30;;;;;;;;;;5062889;28;20275;-64
2022/07/26 06:51:00;;;;;;;5.75;1.23;;;;;;;;;;5054523;28;20212;-64
2022/07/26 06:53:25;;;;;;;4.35;1.52;;;;;;;;;;5044553;28;20270;-64
2022/07/26 06:55:50;;;;;;;6.80;1.70;;;;;;;;;;5039353;28;20547;-64
2022/07/26 06:58:16;;;;;;;7.03;1.40;;;;;;;;;;5033316;28;20212;-64
2022/07/26 07:00:41;;;;;;;7.53;1.40;;;;;;;;;;5032181;28;20227;-64
2022/07/26 07:03:06;;;;;;;6.30;1.60;;;;;;;;;;5031684;28;20640;-64
2022/07/26 07:05:32;;;;;;;6.38;1.48;;;;;;;;;;5005764;28;21180;-64
2022/07/26 07:07:57;;;;;;;5.95;1.40;;;;;;;;;;5042061;28;20211;-63
2022/07/26 07:10:22;;;;;;;6.55;1.40;;;;;;;;;;5050908;28;20203;-64
2022/07/26 07:12:48;;;;;;;10.20;2.10;;;;;;;;;;5052175;28;20215;-63
2022/07/26 07:15:13;;;;;;;6.80;1.67;;;;;;;;;;5051053;28;20217;-62
2022/07/26 07:17:38;;;;;;;17.52;2.38;;;;;;;;;;5051797;28;20243;-61
2022/07/26 07:20:04;;;;;;;5.47;1.40;;;;;;;;;;5051450;28;20294;-62
2022/07/26 07:22:30;;;;;;;4.18;1.23;;;;;;;;;;5051329;28;20301;-61
2022/07/26 07:24:55;;;;;;;4.53;1.30;;;;;;;;;;5050983;28;20572;-61
2022/07/26 07:27:20;;;;;;;5.43;1.40;;;;;;;;;;5051425;28;20311;-61
2022/07/26 07:29:45;;;;;;;4.53;1.42;;;;;;;;;;5051214;28;20233;-61
2022/07/26 07:32:11;;;;;;;6.88;1.40;;;;;;;;;;5051429;28;20223;-62
2022/07/26 07:34:36;;;;;;;3.58;1.20;;;;;;;;;;5051694;28;20207;-62
2022/07/26 07:37:03;;;;;;;3.88;1.10;;;;;;;;;;5050150;28;20671;-61
2022/07/26 07:39:28;;;;;;;5.32;1.52;;;;;;;;;;5051463;28;20249;-62
2022/07/26 07:41:54;;;;;;;5.47;1.50;;;;;;;;;;5050843;28;20564;-62
2022/07/26 07:44:19;;;;;;;8.10;1.40;;;;;;;;;;5050731;28;20280;-62
2022/07/26 07:46:44;;;;;;;5.32;1.30;;;;;;;;;;5051792;28;20256;-62
2022/07/26 07:49:09;;;;;;;6.05;1.30;;;;;;;;;;5050204;28;20644;-62
2022/07/26 07:51:35;;;;;;;5.10;1.23;;;;;;;;;;5051138;28;20211;-62
2022/07/26 07:54:00;;;;;;;5.55;1.20;;;;;;;;;;5051217;28;20207;-62
2022/07/26 07:56:25;;;;;;;5.03;1.35;;;;;;;;;;5049817;28;20478;-62
2022/07/26 07:58:51;;;;;;;5.47;1.30;;;;;;;;;;5051074;28;20211;-62
2022/07/26 08:01:16;;;;;;;4.43;1.30;;;;;;;;;;5050625;28;20280;-63
2022/07/26 08:03:41;;;;;;;4.20;1.10;;;;;;;;;;5050781;28;20223;-62
2022/07/26 08:06:07;;;;;;;5.63;1.40;;;;;;;;;;5050443;28;20295;-62
2022/07/26 08:08:33;;;;;;;5.35;1.40;;;;;;;;;;5050751;28;20207;-62
2022/07/26 08:10:58;;;;;;;3.85;1.02;;;;;;;;;;5049917;28;20211;-62
2022/07/26 08:13:23;;;;;;;3.47;1.17;;;;;;;;;;5057998;28;20237;-63
2022/07/26 08:15:50;;;;;;;3.17;0.90;;;;;;;;;;5051027;28;20234;-63
2022/07/26 08:18:15;;;;;;;4.20;1.20;;;;;;;;;;5034600;28;20708;-61
2022/07/26 08:20:40;;;;;;;4.53;0.88;;;;;;;;;;5038926;28;20204;-63
2022/07/26 08:23:06;;;;;;;4.95;0.98;;;;;;;;;;5040182;28;20502;-62
2022/07/26 08:25:31;;;;;;;5.63;0.63;;;;;;;;;;5042787;28;20211;-63
2022/07/26 08:27:56;;;;;;;4.65;1.33;;;;;;;;;;5050626;28;20264;-63
2022/07/26 08:30:22;;;;;;;3.80;0.80;;;;;;;;;;5050326;28;20241;-64
2022/07/26 08:32:47;;;;;;;3.97;0.70;;;;;;;;;;5047567;28;20225;-64
2022/07/26 08:35:12;;;;;;;1.88;0.75;;;;;;;;;;5053050;28;20215;-63
2022/07/26 08:37:38;;;;;;;10.05;1.05;;;;;;;;;;5067466;28;20203;-63
2022/07/26 08:40:04;;;;;;;4.95;0.95;;;;;;;;;;5059275;28;20213;-65
2022/07/26 08:42:29;;;;;;;2.90;0.77;;;;;;;;;;5061255;28;20569;-64
2022/07/26 08:44:54;;;;;;;3.60;0.70;;;;;;;;;;5070774;28;20221;-64
2022/07/26 08:47:20;;;;;;;5.32;1.00;;;;;;;;;;5069493;28;20211;-64
2022/07/26 08:49:45;;;;;;;6.00;0.93;;;;;;;;;;5070523;28;20214;-64
2022/07/26 08:52:11;;;;;;;3.25;0.70;;;;;;;;;;5051567;28;20697;-64
2022/07/26 08:54:41;;;;;;;3.55;0.90;;;;;;;;;;5069786;28;20309;-64
2022/07/26 08:57:06;;;;;;;4.70;1.05;;;;;;;;;;5050616;28;20692;-65
2022/07/26 08:59:32;;;;;;;5.68;2.00;;;;;;;;;;5059944;28;20230;-64
2022/07/26 09:01:58;;;;;;;2.60;0.80;;;;;;;;;;5060379;28;20677;-64
2022/07/26 09:04:25;;;;;;;3.08;0.60;;;;;;;;;;5058235;28;20215;-64
2022/07/26 09:06:56;;;;;;;1.60;0.55;;;;;;;;;;5032019;28;20214;-65
2022/07/26 09:09:21;;;;;;;3.70;0.70;;;;;;;;;;5031473;28;20207;-65
2022/07/26 09:11:47;;;;;;;3.95;0.50;;;;;;;;;;5050316;28;20206;-65
2022/07/26 09:14:12;;;;;;;3.80;0.70;;;;;;;;;;5049687;28;20207;-66
2022/07/26 09:16:38;;;;;;;2.30;0.47;;;;;;;;;;5050403;28;20203;-67
2022/07/26 09:19:17;;;;;;;2.60;0.57;;;;;;;;;;5050191;28;20211;-65
2022/07/26 09:21:43;;;;;;;1.95;0.70;;;;;;;;;;5055916;28;20214;-65
2022/07/26 09:24:08;;;;;;;2.55;0.60;;;;;;;;;;5072952;28;20271;-65
2022/07/26 09:26:33;;;;;;;2.88;0.68;;;;;;;;;;5056383;28;20286;-65
2022/07/26 09:29:00;;;;;;;3.33;0.60;;;;;;;;;;5064351;28;20681;-65
2022/07/26 09:31:25;;;;;;;2.25;0.73;;;;;;;;;;5053784;28;20227;-65
2022/07/26 09:33:51;;;;;;;4.78;0.73;;;;;;;;;;5053881;28;20306;-66
2022/07/26 09:36:16;;;;;;;2.88;0.55;;;;;;;;;;5052586;28;20214;-66
2022/07/26 09:38:42;;;;;;;3.55;0.55;;;;;;;;;;5035877;28;20222;-66
2022/07/26 09:41:20;;;;;;;4.72;0.93;;;;;;;;;;5053201;28;20209;-65
2022/07/26 09:43:45;;;;;;;3.47;0.63;;;;;;;;;;5053144;28;20219;-66
2022/07/26 09:46:10;;;;;;;5.15;0.60;;;;;;;;;;5053339;28;20701;-66
2022/07/26 09:48:38;;;;;;;18.60;1.27;;;;;;;;;;5052994;28;20214;-66
2022/07/26 09:51:03;;;;;;;86.78;6.10;;;;;;;;;;5037708;28;20203;-65
2022/07/26 09:53:32;;;;;;;8.25;0.80;;;;;;;;;;5066761;28;20279;-65
2022/07/26 09:55:58;;;;;;;3.25;0.50;;;;;;;;;;5055111;28;20230;-66
2022/07/26 09:58:23;;;;;;;1.63;0.60;;;;;;;;;;5073037;28;20630;-66
2022/07/26 10:00:48;;;;;;;6.60;0.70;;;;;;;;;;5073592;28;20792;-67
2022/07/26 10:03:14;;;;;;;5.20;0.60;;;;;;;;;;5072375;28;20226;-67
2022/07/26 10:05:39;;;;;;;3.80;0.68;;;;;;;;;;5073168;28;20669;-66
2022/07/26 10:08:04;;;;;;;4.32;0.73;;;;;;;;;;5072639;28;20603;-66
2022/07/26 10:10:32;;;;;;;6.32;0.70;;;;;;;;;;5054955;28;20206;-66
2022/07/26 10:12:58;;;;;;;5.45;0.75;;;;;;;;;;5055111;28;20206;-67
2022/07/26 10:15:34;;;;;;;4.85;0.73;;;;;;;;;;5044971;28;20210;-66
2022/07/26 10:17:59;;;;;;;4.03;0.63;;;;;;;;;;5052745;28;20207;-66
2022/07/26 10:20:39;;;;;;;5.60;0.90;;;;;;;;;;5052501;28;20215;-67
2022/07/26 10:23:25;;;;;;;2.63;0.70;;;;;;;;;;5052800;28;20217;-66
2022/07/26 10:25:50;;;;;;;3.45;0.65;;;;;;;;;;5052223;28;20215;-66
2022/07/26 10:28:21;;;;;;;4.80;0.77;;;;;;;;;;5052284;28;20687;-66
2022/07/26 10:30:46;;;;;;;5.43;0.77;;;;;;;;;;5046263;28;20210;-66
2022/07/26 10:33:12;;;;;;;3.47;0.70;;;;;;;;;;5034376;28;20203;-66
2022/07/26 10:35:39;;;;;;;6.00;0.95;;;;;;;;;;5035385;28;20666;-66
2022/07/26 10:38:06;;;;;;;4.18;0.60;;;;;;;;;;5052112;28;20211;-66
2022/07/26 10:40:31;;;;;;;7.10;0.90;;;;;;;;;;5052617;28;20298;-64
2022/07/26 10:43:07;;;;;;;5.55;0.90;;;;;;;;;;5034669;28;20290;-64
2022/07/26 10:45:32;;;;;;;3.17;0.73;;;;;;;;;;5033980;28;20302;-63
2022/07/26 10:48:13;;;;;;;3.60;0.90;;;;;;;;;;5052597;28;20223;-63
2022/07/26 10:50:39;;;;;;;2.53;0.85;;;;;;;;;;5052621;28;20234;-64
2022/07/26 10:53:04;;;;;;;4.70;0.90;;;;;;;;;;5051570;28;20230;-64
2022/07/26 10:55:29;;;;;;;3.10;0.90;;;;;;;;;;5052034;28;20234;-64
2022/07/26 10:57:55;;;;;;;3.03;0.70;;;;;;;;;;5052471;28;20213;-64
2022/07/26 11:00:22;;;;;;;4.88;0.98;;;;;;;;;;5051137;28;20666;-64
2022/07/26 11:02:48;;;;;;;5.28;0.77;;;;;;;;;;5052499;28;20723;-64
2022/07/26 11:05:15;;;;;;;5.10;1.20;;;;;;;;;;5052157;28;20708;-64
2022/07/26 11:07:58;;;;;;;6.65;0.93;;;;;;;;;;5051521;28;20199;-64
2022/07/26 11:10:25;;;;;;;4.95;0.70;;;;;;;;;;5051212;28;20210;-64
2022/07/26 11:12:59;;;;;;;6.70;0.80;;;;;;;;;;5033678;28;20626;-65
2022/07/26 11:15:25;;;;;;;3.13;0.70;;;;;;;;;;5051870;28;20215;-64
2022/07/26 11:17:50;;;;;;;3.33;0.60;;;;;;;;;;5052275;28;20215;-65
2022/07/26 11:20:27;;;;;;;4.78;0.70;;;;;;;;;;5051266;28;20219;-65
2022/07/26 11:22:52;;;;;;;23.90;1.60;;;;;;;;;;5051299;28;20291;-65
2022/07/26 11:25:19;;;;;;;5.85;1.08;;;;;;;;;;5051250;28;20211;-65
2022/07/26 11:27:58;;;;;;;2.60;0.65;;;;;;;;;;5051609;28;20218;-64
2022/07/26 11:30:23;;;;;;;5.90;1.00;;;;;;;;;;5050691;28;20221;-65
2022/07/26 11:32:52;;;;;;;4.80;0.90;;;;;;;;;;5059735;28;20211;-67
2022/07/26 11:35:17;;;;;;;4.13;0.98;;;;;;;;;;5050661;28;20581;-65
2022/07/26 11:37:51;;;;;;;4.18;0.60;;;;;;;;;;5051489;28;20555;-67
2022/07/26 11:40:16;;;;;;;5.63;1.10;;;;;;;;;;5049705;28;20427;-64
2022/07/26 11:42:41;;;;;;;5.93;0.90;;;;;;;;;;5049414;28;20497;-67
2022/07/26 11:45:08;;;;;;;5.70;0.90;;;;;;;;;;5055486;28;20549;-66
2022/07/26 11:47:33;;;;;;;4.65;1.00;;;;;;;;;;5055555;28;21004;-71
2022/07/26 11:50:03;;;;;;;4.95;0.60;;;;;;;;;;5055901;28;20215;-68
2022/07/26 11:52:29;;;;;;;5.65;1.00;;;;;;;;;;5051023;28;20272;-72
2022/07/26 11:54:55;;;;;;;4.22;0.70;;;;;;;;;;5051447;28;20286;-69
2022/07/26 11:57:20;;;;;;;4.18;0.80;;;;;;;;;;5050389;28;20726;-70
2022/07/26 11:59:46;;;;;;;5.95;0.88;;;;;;;;;;5051444;28;20249;-68
2022/07/26 12:02:11;;;;;;;5.00;0.88;;;;;;;;;;5032290;28;20211;-68
2022/07/26 12:04:37;;;;;;;6.88;0.98;;;;;;;;;;5050786;28;20226;-68
2022/07/26 12:07:07;;;;;;;3.88;0.90;;;;;;;;;;5050787;28;20214;-68
2022/07/26 12:09:34;;;;;;;7.90;1.95;;;;;;;;;;5032824;28;20290;-68
2022/07/26 12:12:01;;;;;;;4.70;1.02;;;;;;;;;;5048460;28;20211;-68
2022/07/26 12:14:27;;;;;;;6.38;0.90;;;;;;;;;;5051042;28;20245;-68
2022/07/26 12:16:52;;;;;;;5.90;1.10;;;;;;;;;;5050559;28;20241;-69
2022/07/26 12:19:17;;;;;;;9.18;1.10;;;;;;;;;;5057948;28;20211;-70
2022/07/26 12:21:43;;;;;;;9.20;1.30;;;;;;;;;;5050977;28;20210;-69
2022/07/26 12:24:09;;;;;;;5.50;0.93;;;;;;;;;;5049832;28;20750;-69
2022/07/26 12:26:35;;;;;;;6.40;1.02;;;;;;;;;;5032781;28;20211;-72
2022/07/26 12:29:23;;;;;;;17.27;1.73;;;;;;;;;;5050461;28;20538;-68
2022/07/26 12:31:45;;;;;;;8.63;1.00;;;;;;;;;;5043690;28;20199;-71
2022/07/26 12:34:11;;;;;;;5.07;1.20;;;;;;;;;;5048909;28;20209;-69
2022/07/26 12:36:36;;;;;;;11.48;1.80;;;;;;;;;;5033116;28;20207;-71
2022/07/26 12:39:01;;;;;;;22.95;2.85;;;;;;;;;;5057557;28;20207;-69
2022/07/26 12:41:30;;;;;;;3.05;0.93;;;;;;;;;;5038044;28;20199;-70
2022/07/26 12:43:56;;;;;;;5.70;0.80;;;;;;;;;;5050567;28;20226;-71
2022/07/26 12:46:21;;;;;;;3.33;0.68;;;;;;;;;;5049217;28;20206;-70
2022/07/26 12:48:46;;;;;;;3.20;0.60;;;;;;;;;;5050572;28;20207;-71
2022/07/26 12:51:12;;;;;;;6.28;0.85;;;;;;;;;;5050109;28;20211;-71
2022/07/26 12:53:37;;;;;;;4.57;0.82;;;;;;;;;;5050120;28;20211;-69
2022/07/26 12:56:02;;;;;;;5.05;0.77;;;;;;;;;;5053744;28;20704;-71
2022/07/26 12:58:28;;;;;;;7.05;0.70;;;;;;;;;;5054354;28;20230;-72
2022/07/26 13:00:53;;;;;;;2.13;0.70;;;;;;;;;;5051572;28;20276;-71
2022/07/26 13:03:18;;;;;;;6.10;0.70;;;;;;;;;;5034325;28;20235;-72
2022/07/26 13:05:44;;;;;;;10.05;1.33;;;;;;;;;;5040302;28;20333;-71
2022/07/26 13:08:09;;;;;;;3.60;0.80;;;;;;;;;;5029790;28;20269;-73
2022/07/26 13:10:34;;;;;;;3.60;0.75;;;;;;;;;;5039784;28;20667;-74
2022/07/26 13:12:59;;;;;;;4.40;1.00;;;;;;;;;;5047965;28;20239;-74
2022/07/26 13:15:25;;;;;;;4.65;0.90;;;;;;;;;;5038128;28;20729;-74
2022/07/26 13:17:50;;;;;;;5.65;0.85;;;;;;;;;;5047671;28;20215;-73
2022/07/26 13:20:15;;;;;;;7.10;0.90;;;;;;;;;;5037580;28;20243;-73
2022/07/26 13:22:41;;;;;;;7.32;1.08;;;;;;;;;;5043612;28;20216;-73
2022/07/26 13:25:06;;;;;;;8.15;1.58;;;;;;;;;;5044376;28;20254;-73
2022/07/26 13:27:32;;;;;;;5.93;1.17;;;;;;;;;;5040131;28;20349;-72
2022/07/26 13:29:57;;;;;;;10.65;1.33;;;;;;;;;;5025873;28;20211;-72
2022/07/26 13:32:22;;;;;;;9.55;1.77;;;;;;;;;;5032611;28;20208;-71
2022/07/26 13:34:48;;;;;;;7.25;1.70;;;;;;;;;;5042317;28;20222;-72
2022/07/26 13:37:13;;;;;;;7.15;1.60;;;;;;;;;;5036733;28;20215;-72
2022/07/26 13:39:38;;;;;;;7.10;1.52;;;;;;;;;;5042486;28;20215;-72
2022/07/26 13:42:04;;;;;;;8.85;1.70;;;;;;;;;;5036238;28;20224;-70
2022/07/26 13:44:29;;;;;;;6.28;1.48;;;;;;;;;;5034232;28;20227;-71
2022/07/26 13:46:54;;;;;;;7.75;1.80;;;;;;;;;;5014252;28;20257;-70
2022/07/26 13:49:20;;;;;;;8.07;1.48;;;;;;;;;;5022780;28;20252;-69
2022/07/26 13:52:00;;;;;;;7.32;1.50;;;;;;;;;;5026136;28;20203;-69
2022/07/26 13:54:27;;;;;;;8.70;1.95;;;;;;;;;;5021048;28;20875;-71
2022/07/26 13:56:52;;;;;;;10.45;1.65;;;;;;;;;;5029083;28;20239;-71
2022/07/26 13:59:18;;;;;;;9.55;2.00;;;;;;;;;;5033827;28;20231;-67
2022/07/26 14:01:43;;;;;;;10.07;1.63;;;;;;;;;;5046395;28;20238;-68
2022/07/26 14:04:08;;;;;;;11.32;1.52;;;;;;;;;;5043414;28;20317;-69
2022/07/26 14:06:34;;;;;;;10.90;1.77;;;;;;;;;;5027916;28;20258;-70
2022/07/26 14:08:59;;;;;;;4.70;1.50;;;;;;;;;;5027791;28;21094;-70
2022/07/26 14:11:25;;;;;;;10.52;1.85;;;;;;;;;;5005124;28;20203;-69
2022/07/26 14:13:51;;;;;;;11.05;1.85;;;;;;;;;;5002590;28;20214;-68
2022/07/26 14:16:16;;;;;;;8.02;1.50;;;;;;;;;;5002129;28;20772;-68
2022/07/26 14:18:41;;;;;;;8.68;1.50;;;;;;;;;;5024321;28;20208;-69
2022/07/26 14:21:07;;;;;;;10.98;1.83;;;;;;;;;;5028090;28;20215;-69
2022/07/26 14:23:32;;;;;;;8.85;1.70;;;;;;;;;;5030340;28;20342;-70
2022/07/26 14:25:58;;;;;;;6.90;1.20;;;;;;;;;;5031040;28;20224;-69
2022/07/26 14:28:23;;;;;;;9.80;1.40;;;;;;;;;;5040687;28;20262;-76
2022/07/26 14:30:48;;;;;;;5.28;1.20;;;;;;;;;;5027095;28;20683;-75
2022/07/26 14:33:13;;;;;;;8.88;1.80;;;;;;;;;;5033892;28;20222;-73
2022/07/26 14:35:40;;;;;;;6.22;1.38;;;;;;;;;;5039171;28;20294;-76